Time;durP1;ratioP1;P1;durP2;ratioP2;P2;SDS_P1;SDS_P2;PMS_P1;PMS_P2;Temp;Humidity;BMP_temperature;BMP_pressure;BME280_temperature;BME280_humidity;BME280_pressure;Samples;Min_cycle;Max_cycle;Signal;HPM_P1;HPM_P2
2023/07/10 00:01:18;;;;;;;5.18;3.83;;;;;;;;;;5008168;28;20617;-81
2023/07/10 00:03:45;;;;;;;4.43;3.67;;;;;;;;;;5013471;28;20269;-81
2023/07/10 00:06:13;;;;;;;7.75;4.03;;;;;;;;;;5007014;28;20273;-80
2023/07/10 00:08:40;;;;;;;9.63;4.10;;;;;;;;;;5011955;28;20247;-81
2023/07/10 00:11:14;;;;;;;7.30;3.75;;;;;;;;;;5012275;28;20559;-81
2023/07/10 00:13:41;;;;;;;4.43;3.30;;;;;;;;;;5006115;28;20258;-81
2023/07/10 00:16:13;;;;;;;9.05;3.75;;;;;;;;;;5014888;28;20603;-81
2023/07/10 00:18:40;;;;;;;7.18;3.88;;;;;;;;;;5012600;28;20330;-81
2023/07/10 00:21:08;;;;;;;4.78;3.53;;;;;;;;;;5013615;28;20213;-81
2023/07/10 00:23:35;;;;;;;5.32;3.47;;;;;;;;;;5014107;28;20234;-81
2023/07/10 00:26:02;;;;;;;6.53;4.05;;;;;;;;;;5015246;28;20227;-81
2023/07/10 00:28:30;;;;;;;5.57;4.63;;;;;;;;;;5009841;28;20231;-81
2023/07/10 00:30:57;;;;;;;5.80;3.85;;;;;;;;;;4999737;28;20208;-80
2023/07/10 00:33:24;;;;;;;9.80;3.90;;;;;;;;;;4997577;28;20228;-80
2023/07/10 00:35:52;;;;;;;6.43;3.85;;;;;;;;;;5009891;28;20238;-81
2023/07/10 00:38:20;;;;;;;4.72;3.83;;;;;;;;;;4997004;28;20227;-80
2023/07/10 00:40:48;;;;;;;5.85;3.75;;;;;;;;;;5010220;28;20234;-80
2023/07/10 00:43:21;;;;;;;4.35;3.90;;;;;;;;;;5005659;28;20609;-81
2023/07/10 00:45:50;;;;;;;8.80;4.03;;;;;;;;;;5013452;28;20227;-80
2023/07/10 00:48:25;;;;;;;7.05;4.00;;;;;;;;;;5013942;28;20261;-80
2023/07/10 00:50:52;;;;;;;7.97;4.05;;;;;;;;;;5005425;28;20206;-80
2023/07/10 00:53:23;;;;;;;5.47;3.65;;;;;;;;;;5003110;28;20234;-81
2023/07/10 00:55:50;;;;;;;8.27;4.03;;;;;;;;;;5002606;28;20235;-80
2023/07/10 00:58:21;;;;;;;4.88;3.88;;;;;;;;;;5000304;28;20230;-80
2023/07/10 01:01:04;;;;;;;6.07;3.97;;;;;;;;;;5011371;28;20679;-80
2023/07/10 01:03:31;;;;;;;8.13;3.97;;;;;;;;;;5012825;28;20608;-80
2023/07/10 01:05:59;;;;;;;8.82;4.30;;;;;;;;;;5012046;28;20239;-81
2023/07/10 01:08:26;;;;;;;5.45;3.70;;;;;;;;;;5006822;28;20232;-80
2023/07/10 01:10:53;;;;;;;7.70;3.55;;;;;;;;;;4997172;28;20211;-80
2023/07/10 01:13:20;;;;;;;5.20;4.18;;;;;;;;;;4998371;28;20239;-80
2023/07/10 01:15:48;;;;;;;4.68;4.10;;;;;;;;;;5002364;28;20223;-81
2023/07/10 01:18:17;;;;;;;7.28;4.18;;;;;;;;;;5001867;28;20224;-80
2023/07/10 01:20:46;;;;;;;5.00;4.30;;;;;;;;;;5010814;28;20234;-81
2023/07/10 01:23:15;;;;;;;6.25;4.25;;;;;;;;;;5005080;28;20223;-80
2023/07/10 01:25:45;;;;;;;7.63;4.53;;;;;;;;;;5013571;28;20231;-81
2023/07/10 01:28:15;;;;;;;7.38;4.03;;;;;;;;;;5013030;28;20231;-80
2023/07/10 01:30:43;;;;;;;5.60;4.18;;;;;;;;;;5013036;28;20206;-80
2023/07/10 01:33:14;;;;;;;6.05;4.03;;;;;;;;;;5013281;28;20235;-80
2023/07/10 01:35:41;;;;;;;5.97;4.15;;;;;;;;;;5012877;28;20713;-80
2023/07/10 01:38:09;;;;;;;7.28;4.25;;;;;;;;;;5013200;28;20238;-81
2023/07/10 01:40:39;;;;;;;5.50;3.75;;;;;;;;;;5013053;28;20271;-81
2023/07/10 01:43:06;;;;;;;8.90;3.72;;;;;;;;;;5013015;28;20290;-81
2023/07/10 01:45:42;;;;;;;6.78;4.40;;;;;;;;;;5012778;28;20241;-81
2023/07/10 01:48:09;;;;;;;6.05;4.47;;;;;;;;;;5012690;28;20270;-80
2023/07/10 01:50:36;;;;;;;7.38;4.30;;;;;;;;;;5012705;28;20203;-81
2023/07/10 01:53:03;;;;;;;5.65;4.10;;;;;;;;;;5013176;28;20227;-81
2023/07/10 01:55:31;;;;;;;5.38;3.97;;;;;;;;;;5013033;28;20235;-81
2023/07/10 01:58:00;;;;;;;9.25;4.50;;;;;;;;;;5012405;28;20231;-81
2023/07/10 02:00:27;;;;;;;7.65;4.07;;;;;;;;;;5012137;28;20203;-81
2023/07/10 02:02:54;;;;;;;7.90;4.13;;;;;;;;;;5012010;28;20322;-81
2023/07/10 02:05:21;;;;;;;4.80;4.20;;;;;;;;;;5013341;28;20227;-80
2023/07/10 02:07:48;;;;;;;5.53;4.22;;;;;;;;;;5012480;28;21331;-81
2023/07/10 02:10:15;;;;;;;6.90;4.68;;;;;;;;;;5012368;28;20210;-81
2023/07/10 02:12:42;;;;;;;6.15;4.43;;;;;;;;;;5012435;28;20207;-81
2023/07/10 02:15:11;;;;;;;8.93;4.55;;;;;;;;;;5012507;28;20207;-81
2023/07/10 02:17:38;;;;;;;6.40;4.40;;;;;;;;;;5012234;28;20215;-81
2023/07/10 02:20:06;;;;;;;4.97;4.43;;;;;;;;;;5012696;28;20229;-80
2023/07/10 02:22:33;;;;;;;6.03;3.97;;;;;;;;;;5012904;28;20262;-81
2023/07/10 02:25:00;;;;;;;6.20;4.65;;;;;;;;;;5012653;28;20246;-81
2023/07/10 02:27:28;;;;;;;6.00;4.78;;;;;;;;;;5012123;28;20234;-81
2023/07/10 02:29:55;;;;;;;5.15;3.78;;;;;;;;;;5012554;28;20558;-80
2023/07/10 02:32:23;;;;;;;7.90;4.40;;;;;;;;;;5003269;28;20208;-81
2023/07/10 02:34:50;;;;;;;12.15;4.40;;;;;;;;;;4992542;28;20235;-80
2023/07/10 02:37:17;;;;;;;8.23;4.22;;;;;;;;;;4992423;28;20224;-80
2023/07/10 02:39:44;;;;;;;6.05;4.57;;;;;;;;;;4992277;28;20731;-81
2023/07/10 02:42:11;;;;;;;6.03;4.50;;;;;;;;;;4992935;28;20204;-81
2023/07/10 02:44:38;;;;;;;8.82;4.70;;;;;;;;;;4992603;28;20235;-79
2023/07/10 02:47:05;;;;;;;6.38;4.20;;;;;;;;;;4992126;28;20608;-81
2023/07/10 02:49:34;;;;;;;6.05;4.13;;;;;;;;;;5008307;28;20238;-81
2023/07/10 02:52:01;;;;;;;5.75;4.35;;;;;;;;;;5011630;28;20211;-81
2023/07/10 02:54:28;;;;;;;8.70;4.18;;;;;;;;;;4994382;28;20243;-81
2023/07/10 02:56:55;;;;;;;7.50;4.47;;;;;;;;;;4992311;28;20228;-81
2023/07/10 02:59:26;;;;;;;6.72;5.15;;;;;;;;;;4992129;28;20235;-81
2023/07/10 03:01:53;;;;;;;6.30;4.38;;;;;;;;;;4992618;28;20212;-80
2023/07/10 03:04:20;;;;;;;8.23;4.80;;;;;;;;;;4991812;28;20231;-81
2023/07/10 03:06:49;;;;;;;6.72;4.72;;;;;;;;;;4990739;28;20231;-80
2023/07/10 03:09:16;;;;;;;7.10;4.50;;;;;;;;;;4990768;28;20235;-80
2023/07/10 03:11:43;;;;;;;7.82;4.90;;;;;;;;;;4992100;28;20262;-80
2023/07/10 03:14:10;;;;;;;9.05;4.65;;;;;;;;;;4991902;28;20228;-81
2023/07/10 03:16:37;;;;;;;8.40;4.60;;;;;;;;;;4992018;28;20572;-80
2023/07/10 03:19:04;;;;;;;7.78;4.55;;;;;;;;;;4991125;28;20227;-80
2023/07/10 03:21:31;;;;;;;7.53;4.82;;;;;;;;;;4991642;28;20215;-81
2023/07/10 03:24:02;;;;;;;9.85;4.72;;;;;;;;;;4991156;28;20244;-81
2023/07/10 03:26:29;;;;;;;8.93;4.70;;;;;;;;;;4988023;28;20227;-81
2023/07/10 03:29:06;;;;;;;8.43;4.70;;;;;;;;;;4991124;28;20714;-81
2023/07/10 03:31:33;;;;;;;6.32;4.40;;;;;;;;;;4991824;28;20212;-81
2023/07/10 03:34:00;;;;;;;8.05;4.55;;;;;;;;;;4991757;28;20259;-81
2023/07/10 03:36:28;;;;;;;13.38;4.78;;;;;;;;;;4992162;28;20239;-82
2023/07/10 03:38:55;;;;;;;16.50;6.35;;;;;;;;;;4991367;28;20796;-82
2023/07/10 03:41:23;;;;;;;15.25;5.70;;;;;;;;;;4992504;28;20212;-83
2023/07/10 03:43:51;;;;;;;7.68;5.20;;;;;;;;;;4991877;28;20248;-83
2023/07/10 03:46:19;;;;;;;12.40;6.05;;;;;;;;;;4991883;28;20235;-82
2023/07/10 03:48:47;;;;;;;7.93;5.88;;;;;;;;;;4991290;28;20232;-81
2023/07/10 03:51:15;;;;;;;10.32;6.80;;;;;;;;;;4990056;28;20227;-82
2023/07/10 03:53:42;;;;;;;12.30;6.43;;;;;;;;;;4991557;28;20243;-81
2023/07/10 03:56:09;;;;;;;13.35;6.85;;;;;;;;;;4991642;28;20223;-82
2023/07/10 03:58:40;;;;;;;8.93;6.93;;;;;;;;;;4991347;28;20232;-82
2023/07/10 04:01:07;;;;;;;12.48;6.88;;;;;;;;;;4991844;28;20200;-82
2023/07/10 04:03:35;;;;;;;13.07;6.47;;;;;;;;;;4991241;28;20238;-81
2023/07/10 04:06:02;;;;;;;10.52;6.35;;;;;;;;;;4991576;28;20215;-82
2023/07/10 04:08:30;;;;;;;13.38;7.13;;;;;;;;;;4991158;28;20235;-82
2023/07/10 04:10:58;;;;;;;12.45;6.57;;;;;;;;;;4991993;28;20208;-82
2023/07/10 04:13:25;;;;;;;9.32;6.85;;;;;;;;;;4991389;28;20236;-83
2023/07/10 04:16:01;;;;;;;10.80;6.57;;;;;;;;;;4991590;28;20228;-83
2023/07/10 04:18:29;;;;;;;11.80;6.72;;;;;;;;;;4991165;28;20228;-83
2023/07/10 04:20:57;;;;;;;10.93;6.68;;;;;;;;;;4991844;28;20205;-83
2023/07/10 04:23:24;;;;;;;9.90;6.80;;;;;;;;;;4991421;28;20231;-83
2023/07/10 04:25:51;;;;;;;9.25;7.30;;;;;;;;;;4991901;28;20243;-83
2023/07/10 04:28:18;;;;;;;8.23;6.57;;;;;;;;;;4991275;28;20240;-82
2023/07/10 04:30:46;;;;;;;12.98;6.63;;;;;;;;;;4991462;28;20208;-82
2023/07/10 04:33:14;;;;;;;9.65;6.65;;;;;;;;;;4991244;28;20232;-82
2023/07/10 04:35:42;;;;;;;15.38;6.80;;;;;;;;;;4981305;28;20232;-83
2023/07/10 04:38:09;;;;;;;15.98;7.68;;;;;;;;;;4990148;28;20286;-81
2023/07/10 04:40:36;;;;;;;9.93;6.78;;;;;;;;;;4992073;28;20199;-81
2023/07/10 04:43:03;;;;;;;9.20;7.13;;;;;;;;;;4994444;28;20718;-81
2023/07/10 04:45:30;;;;;;;10.20;6.93;;;;;;;;;;4994613;28;20236;-81
2023/07/10 04:47:57;;;;;;;7.85;6.43;;;;;;;;;;4994756;28;20238;-81
2023/07/10 04:50:26;;;;;;;9.95;6.10;;;;;;;;;;4995037;28;20228;-81
2023/07/10 04:52:53;;;;;;;7.65;6.80;;;;;;;;;;4994233;28;20235;-81
2023/07/10 04:55:20;;;;;;;8.35;6.63;;;;;;;;;;4992968;28;20212;-81
2023/07/10 04:57:47;;;;;;;8.88;6.70;;;;;;;;;;4974742;28;20239;-81
2023/07/10 05:00:14;;;;;;;8.98;6.55;;;;;;;;;;4980207;28;20238;-82
2023/07/10 05:02:42;;;;;;;12.27;5.97;;;;;;;;;;4986327;28;20694;-81
2023/07/10 05:05:09;;;;;;;10.30;6.70;;;;;;;;;;5002940;28;20669;-81
2023/07/10 05:07:37;;;;;;;8.88;6.18;;;;;;;;;;5012591;28;20210;-82
2023/07/10 05:10:05;;;;;;;11.85;6.22;;;;;;;;;;4994362;28;20235;-82
2023/07/10 05:12:32;;;;;;;10.18;6.35;;;;;;;;;;4994552;28;20204;-82
2023/07/10 05:14:59;;;;;;;11.20;6.13;;;;;;;;;;4994653;28;20208;-82
2023/07/10 05:17:26;;;;;;;6.97;5.95;;;;;;;;;;4994186;28;20591;-81
2023/07/10 05:19:53;;;;;;;8.45;5.53;;;;;;;;;;4994361;28;20204;-80
2023/07/10 05:22:20;;;;;;;10.27;6.55;;;;;;;;;;4994535;28;20218;-82
2023/07/10 05:24:48;;;;;;;9.80;6.55;;;;;;;;;;4986790;28;20612;-82
2023/07/10 05:27:15;;;;;;;10.85;6.00;;;;;;;;;;4994040;28;20943;-82
2023/07/10 05:29:42;;;;;;;10.10;6.90;;;;;;;;;;4993581;28;20243;-82
2023/07/10 05:32:10;;;;;;;8.98;5.80;;;;;;;;;;4993888;28;20207;-82
2023/07/10 05:34:37;;;;;;;10.43;7.00;;;;;;;;;;4993806;28;20589;-82
2023/07/10 05:37:04;;;;;;;8.52;6.78;;;;;;;;;;4993801;28;20714;-82
2023/07/10 05:39:31;;;;;;;10.10;7.03;;;;;;;;;;4993194;28;20228;-81
2023/07/10 05:42:00;;;;;;;9.15;7.07;;;;;;;;;;4993913;28;20219;-82
2023/07/10 05:44:27;;;;;;;10.07;6.75;;;;;;;;;;4993268;28;20232;-81
2023/07/10 05:46:55;;;;;;;9.57;8.05;;;;;;;;;;4993640;28;20247;-82
2023/07/10 05:49:23;;;;;;;11.30;7.50;;;;;;;;;;4993192;28;20702;-82
2023/07/10 05:51:50;;;;;;;14.48;9.65;;;;;;;;;;4993929;28;20231;-81
2023/07/10 05:54:17;;;;;;;12.05;10.02;;;;;;;;;;4993073;28;20239;-82
2023/07/10 05:56:44;;;;;;;18.17;11.35;;;;;;;;;;4993982;28;20595;-81
2023/07/10 05:59:13;;;;;;;18.13;12.63;;;;;;;;;;4993187;28;20235;-81
2023/07/10 06:01:40;;;;;;;16.88;13.55;;;;;;;;;;4993219;28;20666;-82
2023/07/10 06:04:07;;;;;;;19.25;12.75;;;;;;;;;;4993105;28;20290;-82
2023/07/10 06:06:34;;;;;;;18.33;12.93;;;;;;;;;;4993626;28;20227;-82
2023/07/10 06:09:01;;;;;;;15.63;12.75;;;;;;;;;;4990970;28;20243;-82
2023/07/10 06:11:28;;;;;;;16.80;12.77;;;;;;;;;;4987486;28;20223;-82
2023/07/10 06:13:55;;;;;;;16.70;13.32;;;;;;;;;;4991800;28;20235;-81
2023/07/10 06:16:24;;;;;;;19.02;13.82;;;;;;;;;;4987503;28;20232;-81
2023/07/10 06:18:51;;;;;;;18.48;13.55;;;;;;;;;;4991142;28;20232;-80
2023/07/10 06:21:18;;;;;;;20.85;14.07;;;;;;;;;;5005587;28;20216;-80
2023/07/10 06:23:45;;;;;;;19.63;14.00;;;;;;;;;;5011751;28;20235;-80
2023/07/10 06:26:12;;;;;;;17.02;13.70;;;;;;;;;;5007533;28;20251;-80
2023/07/10 06:28:39;;;;;;;18.83;13.88;;;;;;;;;;5001337;28;20243;-79
2023/07/10 06:31:08;;;;;;;21.98;14.57;;;;;;;;;;4989546;28;20223;-79
2023/07/10 06:33:36;;;;;;;22.85;14.13;;;;;;;;;;4981450;28;20236;-80
2023/07/10 06:36:04;;;;;;;18.05;14.27;;;;;;;;;;4989164;28;20231;-80
2023/07/10 06:38:31;;;;;;;16.10;13.30;;;;;;;;;;4991532;28;20267;-80
2023/07/10 06:40:58;;;;;;;22.58;15.38;;;;;;;;;;4992257;28;20243;-80
2023/07/10 06:43:26;;;;;;;21.92;15.40;;;;;;;;;;4991689;28;20240;-80
2023/07/10 06:45:55;;;;;;;22.75;16.92;;;;;;;;;;4991734;28;20761;-80
2023/07/10 06:48:22;;;;;;;21.67;18.55;;;;;;;;;;4984761;28;20580;-79
2023/07/10 06:50:52;;;;;;;22.63;17.13;;;;;;;;;;4990592;28;20235;-80
2023/07/10 06:53:19;;;;;;;24.35;18.40;;;;;;;;;;4984297;28;20228;-80
2023/07/10 06:55:46;;;;;;;23.83;18.58;;;;;;;;;;4991423;28;20239;-81
2023/07/10 06:58:13;;;;;;;22.58;18.05;;;;;;;;;;4986371;28;20239;-82
2023/07/10 07:00:40;;;;;;;22.40;17.13;;;;;;;;;;4988511;28;20364;-82
2023/07/10 07:03:09;;;;;;;26.30;18.35;;;;;;;;;;4982320;28;20228;-82
2023/07/10 07:05:36;;;;;;;22.80;18.08;;;;;;;;;;4990683;28;20306;-81
2023/07/10 07:08:08;;;;;;;25.33;17.77;;;;;;;;;;4983994;28;20267;-83
2023/07/10 07:10:40;;;;;;;25.77;18.95;;;;;;;;;;4985122;28;20268;-83
2023/07/10 07:13:07;;;;;;;19.98;17.35;;;;;;;;;;4987227;28;20667;-83
2023/07/10 07:15:34;;;;;;;19.05;16.45;;;;;;;;;;4977872;28;20706;-83
2023/07/10 07:18:01;;;;;;;20.23;16.90;;;;;;;;;;4982888;28;20641;-82
2023/07/10 07:20:28;;;;;;;24.17;17.63;;;;;;;;;;4990873;28;20546;-82
2023/07/10 07:22:55;;;;;;;24.80;16.90;;;;;;;;;;4990528;28;20239;-83
2023/07/10 07:25:24;;;;;;;18.83;16.13;;;;;;;;;;4990610;28;20234;-83
2023/07/10 07:27:51;;;;;;;21.25;16.20;;;;;;;;;;4989743;28;20314;-84
2023/07/10 07:30:18;;;;;;;20.00;16.45;;;;;;;;;;4987409;28;20227;-85
2023/07/10 07:32:47;;;;;;;19.83;16.25;;;;;;;;;;4978477;28;20714;-84
2023/07/10 07:35:14;;;;;;;18.98;15.27;;;;;;;;;;4991364;28;20247;-84
2023/07/10 07:37:41;;;;;;;18.65;14.95;;;;;;;;;;4982574;28;20212;-85
2023/07/10 07:40:09;;;;;;;16.65;14.63;;;;;;;;;;4988377;28;20278;-84
2023/07/10 07:42:38;;;;;;;22.23;15.25;;;;;;;;;;4985866;28;20208;-85
2023/07/10 07:45:06;;;;;;;17.80;15.45;;;;;;;;;;4990407;28;20220;-85
2023/07/10 07:47:33;;;;;;;16.75;14.98;;;;;;;;;;4990862;28;20231;-84
2023/07/10 07:50:00;;;;;;;17.40;14.93;;;;;;;;;;4987687;28;20235;-85
2023/07/10 07:52:27;;;;;;;19.15;14.30;;;;;;;;;;4990235;28;20212;-84
2023/07/10 07:54:54;;;;;;;15.90;13.07;;;;;;;;;;4991386;28;20208;-84
2023/07/10 07:57:23;;;;;;;20.90;14.70;;;;;;;;;;4987330;28;20619;-85
2023/07/10 07:59:52;;;;;;;17.80;14.00;;;;;;;;;;4990288;28;20256;-85
2023/07/10 08:02:19;;;;;;;19.85;14.75;;;;;;;;;;4991286;28;20720;-84
2023/07/10 08:04:46;;;;;;;17.75;14.55;;;;;;;;;;5010027;28;20257;-85
2023/07/10 08:07:13;;;;;;;19.65;15.27;;;;;;;;;;5010570;28;20227;-85
2023/07/10 08:09:40;;;;;;;18.23;13.68;;;;;;;;;;4984225;28;20243;-84
2023/07/10 08:12:07;;;;;;;17.35;14.98;;;;;;;;;;4990868;28;20212;-85
2023/07/10 08:14:34;;;;;;;18.50;14.18;;;;;;;;;;4981844;28;20235;-86
2023/07/10 08:17:03;;;;;;;18.45;14.35;;;;;;;;;;4991453;28;20590;-86
2023/07/10 08:19:30;;;;;;;16.63;13.63;;;;;;;;;;4987356;28;20746;-85
2023/07/10 08:21:57;;;;;;;17.90;14.55;;;;;;;;;;4994538;28;20219;-84
2023/07/10 08:24:24;;;;;;;16.63;14.80;;;;;;;;;;4982416;28;20228;-85
2023/07/10 08:26:51;;;;;;;17.15;13.23;;;;;;;;;;4991494;28;20653;-85
2023/07/10 08:29:26;;;;;;;18.05;15.00;;;;;;;;;;4988386;28;20636;-85
2023/07/10 08:31:54;;;;;;;15.63;13.98;;;;;;;;;;4986798;28;20204;-84
2023/07/10 08:34:22;;;;;;;15.90;13.77;;;;;;;;;;4986231;28;20256;-85
2023/07/10 08:36:50;;;;;;;17.55;13.63;;;;;;;;;;4992965;28;20231;-83
2023/07/10 08:39:17;;;;;;;22.10;14.27;;;;;;;;;;4992283;28;20279;-82
2023/07/10 08:41:44;;;;;;;15.95;13.90;;;;;;;;;;4986984;28;20245;-83
2023/07/10 08:44:12;;;;;;;16.83;13.63;;;;;;;;;;4992304;28;20718;-84
2023/07/10 08:46:39;;;;;;;15.05;13.13;;;;;;;;;;4993926;28;20733;-83
2023/07/10 08:49:10;;;;;;;14.50;12.88;;;;;;;;;;4988184;28;20268;-83
2023/07/10 08:51:42;;;;;;;16.75;12.75;;;;;;;;;;4993894;28;20232;-81
2023/07/10 08:54:11;;;;;;;17.23;13.35;;;;;;;;;;4993642;28;20235;-82
2023/07/10 08:56:42;;;;;;;15.50;12.77;;;;;;;;;;4993757;28;20231;-82
2023/07/10 08:59:14;;;;;;;15.18;13.02;;;;;;;;;;4988988;28;20236;-83
2023/07/10 09:01:42;;;;;;;14.85;13.25;;;;;;;;;;4992568;28;20204;-84
2023/07/10 09:04:13;;;;;;;15.52;12.80;;;;;;;;;;4992730;28;20243;-83
2023/07/10 09:06:42;;;;;;;17.10;13.40;;;;;;;;;;4993686;28;20250;-81
2023/07/10 09:09:19;;;;;;;12.77;11.50;;;;;;;;;;4987944;28;20240;-82
2023/07/10 09:11:47;;;;;;;15.77;11.73;;;;;;;;;;4974351;28;20267;-82
2023/07/10 09:14:22;;;;;;;11.65;10.10;;;;;;;;;;4973687;28;20752;-82
2023/07/10 09:16:51;;;;;;;12.95;10.90;;;;;;;;;;4972584;28;20220;-82
2023/07/10 09:19:20;;;;;;;12.63;10.73;;;;;;;;;;4972028;28;20240;-82
2023/07/10 09:21:48;;;;;;;12.95;10.95;;;;;;;;;;4973523;28;20209;-82
2023/07/10 09:24:18;;;;;;;12.43;10.80;;;;;;;;;;4973658;28;20244;-82
2023/07/10 09:26:45;;;;;;;11.23;10.10;;;;;;;;;;4973658;28;20233;-83
2023/07/10 09:29:27;;;;;;;12.68;10.50;;;;;;;;;;4972146;28;20740;-83
2023/07/10 09:31:56;;;;;;;11.65;10.45;;;;;;;;;;4973612;28;20241;-83
2023/07/10 09:34:24;;;;;;;10.85;9.32;;;;;;;;;;4973383;28;20241;-83
2023/07/10 09:36:53;;;;;;;14.63;10.60;;;;;;;;;;4973753;28;20228;-83
2023/07/10 09:39:20;;;;;;;11.13;9.60;;;;;;;;;;4975515;28;20266;-83
2023/07/10 09:41:48;;;;;;;10.63;9.52;;;;;;;;;;4992243;28;20666;-83
2023/07/10 09:44:16;;;;;;;12.52;9.27;;;;;;;;;;4992406;28;20263;-82
2023/07/10 09:46:43;;;;;;;12.40;9.02;;;;;;;;;;5025178;22;20601;-84
2023/07/10 09:49:12;;;;;;;10.00;9.00;;;;;;;;;;5010591;28;20568;-84
2023/07/10 09:51:40;;;;;;;10.77;8.82;;;;;;;;;;5012157;28;20326;-84
2023/07/10 09:54:16;;;;;;;9.13;8.23;;;;;;;;;;5011201;28;20254;-84
2023/07/10 09:56:43;;;;;;;9.00;8.10;;;;;;;;;;5012165;28;20234;-84
2023/07/10 09:59:19;;;;;;;9.00;8.10;;;;;;;;;;5023476;28;20235;-84
2023/07/10 10:01:47;;;;;;;8.80;8.00;;;;;;;;;;5026668;28;20403;-85
2023/07/10 10:04:18;;;;;;;7.47;6.72;;;;;;;;;;5029876;28;20242;-83
2023/07/10 10:06:55;;;;;;;7.85;6.82;;;;;;;;;;5031628;28;20223;-85
2023/07/10 10:09:25;;;;;;;8.50;6.97;;;;;;;;;;5029767;28;20226;-85
2023/07/10 10:11:53;;;;;;;8.43;7.10;;;;;;;;;;5031407;28;20727;-86
2023/07/10 10:14:23;;;;;;;7.25;6.55;;;;;;;;;;5030396;28;20226;-86
2023/07/10 10:16:52;;;;;;;8.48;6.85;;;;;;;;;;5030849;28;20235;-86
2023/07/10 10:19:22;;;;;;;7.38;6.68;;;;;;;;;;5031086;28;20230;-86
2023/07/10 10:21:49;;;;;;;9.00;6.60;;;;;;;;;;5031958;28;20699;-88
2023/07/10 10:24:16;;;;;;;7.88;6.35;;;;;;;;;;5030965;28;20604;-84
2023/07/10 10:26:54;;;;;;;8.35;6.60;;;;;;;;;;5032117;28;20237;-85
2023/07/10 10:29:30;;;;;;;7.32;6.63;;;;;;;;;;5031048;28;20230;-85
2023/07/10 10:32:01;;;;;;;8.63;5.85;;;;;;;;;;5031469;28;20652;-84
2023/07/10 10:34:33;;;;;;;7.82;6.00;;;;;;;;;;5031170;28;20739;-84
2023/07/10 10:37:06;;;;;;;6.85;5.22;;;;;;;;;;5032060;28;20231;-82
2023/07/10 10:39:37;;;;;;;7.32;5.82;;;;;;;;;;5030379;28;20231;-83
2023/07/10 10:42:11;;;;;;;6.72;5.10;;;;;;;;;;5031278;28;20199;-84
2023/07/10 10:44:42;;;;;;;6.30;5.10;;;;;;;;;;5030733;28;20229;-84
2023/07/10 10:47:19;;;;;;;7.82;5.32;;;;;;;;;;5031030;28;20628;-84
2023/07/10 10:50:04;;;;;;;5.90;5.30;;;;;;;;;;5030385;28;20230;-85
2023/07/10 10:52:35;;;;;;;6.15;4.85;;;;;;;;;;5023346;28;20206;-81
2023/07/10 10:55:20;;;;;;;13.20;6.88;;;;;;;;;;5031478;28;20206;-83
2023/07/10 10:58:04;;;;;;;7.80;6.43;;;;;;;;;;5025640;28;20234;-82
2023/07/10 11:00:37;;;;;;;8.57;6.18;;;;;;;;;;5018226;28;20215;-84
2023/07/10 11:03:10;;;;;;;10.98;6.78;;;;;;;;;;5030742;28;20861;-84
2023/07/10 11:05:40;;;;;;;5.78;5.28;;;;;;;;;;5031074;28;20215;-85
2023/07/10 11:08:10;;;;;;;5.55;4.97;;;;;;;;;;5030458;28;20238;-84
2023/07/10 11:10:39;;;;;;;5.90;5.30;;;;;;;;;;5031010;28;20229;-84
2023/07/10 11:13:15;;;;;;;5.65;5.13;;;;;;;;;;5030350;28;20238;-84
2023/07/10 11:15:42;;;;;;;5.28;4.80;;;;;;;;;;5030983;28;20213;-84
2023/07/10 11:18:12;;;;;;;5.82;5.20;;;;;;;;;;5030657;28;20238;-84
2023/07/10 11:20:39;;;;;;;5.97;5.35;;;;;;;;;;5030799;28;20201;-85
2023/07/10 11:23:26;;;;;;;6.22;4.63;;;;;;;;;;5030260;28;20234;-84
2023/07/10 11:26:00;;;;;;;10.45;5.00;;;;;;;;;;5030458;28;20206;-84
2023/07/10 11:28:31;;;;;;;9.45;4.95;;;;;;;;;;5025080;28;20756;-85
2023/07/10 11:31:13;;;;;;;7.38;5.13;;;;;;;;;;5030432;28;20229;-84
2023/07/10 11:33:43;;;;;;;7.75;4.47;;;;;;;;;;5021209;28;20227;-83
2023/07/10 11:36:16;;;;;;;5.60;4.97;;;;;;;;;;5030254;28;20602;-82
2023/07/10 11:38:56;;;;;;;9.00;5.00;;;;;;;;;;5024831;28;20226;-83
2023/07/10 11:41:25;;;;;;;5.28;4.30;;;;;;;;;;5030700;28;20264;-83
2023/07/10 11:44:12;;;;;;;6.80;4.60;;;;;;;;;;5030081;28;20723;-83
2023/07/10 11:46:55;;;;;;;7.10;4.88;;;;;;;;;;5023463;28;20234;-82
2023/07/10 11:49:23;;;;;;;5.75;4.32;;;;;;;;;;5030082;28;20727;-82
2023/07/10 11:52:04;;;;;;;6.70;4.68;;;;;;;;;;5034794;28;20229;-82
2023/07/10 11:54:41;;;;;;;6.85;4.75;;;;;;;;;;5030756;28;20472;-82
2023/07/10 11:57:22;;;;;;;6.70;4.85;;;;;;;;;;5034158;28;20770;-81
2023/07/10 11:59:52;;;;;;;6.10;4.60;;;;;;;;;;5033421;28;20272;-82
2023/07/10 12:02:26;;;;;;;5.45;4.95;;;;;;;;;;5034298;28;20234;-82
2023/07/10 12:04:54;;;;;;;5.55;4.18;;;;;;;;;;5013669;28;20684;-82
2023/07/10 12:07:21;;;;;;;6.40;4.85;;;;;;;;;;5013877;28;20235;-82
2023/07/10 12:09:51;;;;;;;6.43;4.72;;;;;;;;;;5013970;28;20243;-82
2023/07/10 12:12:18;;;;;;;8.15;5.40;;;;;;;;;;5014142;28;20592;-82
2023/07/10 12:14:45;;;;;;;5.72;4.47;;;;;;;;;;5013769;28;20231;-82
2023/07/10 12:17:16;;;;;;;5.32;4.20;;;;;;;;;;5011557;28;20581;-82
2023/07/10 12:19:44;;;;;;;5.18;4.60;;;;;;;;;;5012914;28;20227;-82
2023/07/10 12:22:19;;;;;;;5.80;4.25;;;;;;;;;;5013912;28;20338;-82
2023/07/10 12:24:49;;;;;;;4.68;4.10;;;;;;;;;;5013697;28;20620;-82
2023/07/10 12:27:16;;;;;;;5.40;4.80;;;;;;;;;;5014013;28;20283;-83
2023/07/10 12:29:50;;;;;;;9.45;5.53;;;;;;;;;;5013684;28;20235;-82
2023/07/10 12:32:19;;;;;;;4.53;4.13;;;;;;;;;;5013944;28;20242;-83
2023/07/10 12:34:46;;;;;;;5.30;4.13;;;;;;;;;;5013526;28;20225;-82
2023/07/10 12:37:14;;;;;;;5.03;3.97;;;;;;;;;;5008885;28;20378;-82
2023/07/10 12:39:42;;;;;;;5.18;4.55;;;;;;;;;;5013565;28;20223;-82
2023/07/10 12:42:24;;;;;;;5.35;4.45;;;;;;;;;;5013687;28;20295;-81
2023/07/10 12:44:51;;;;;;;6.80;4.60;;;;;;;;;;5033629;28;20222;-82
2023/07/10 12:47:20;;;;;;;5.28;4.00;;;;;;;;;;5032724;28;20246;-82
2023/07/10 12:49:51;;;;;;;5.43;4.13;;;;;;;;;;5031829;28;20222;-81
2023/07/10 12:52:18;;;;;;;7.00;4.03;;;;;;;;;;5033221;28;20218;-84
2023/07/10 12:54:47;;;;;;;5.22;4.63;;;;;;;;;;5033518;28;20607;-83
2023/07/10 12:57:16;;;;;;;5.18;4.00;;;;;;;;;;5031844;28;20249;-84
2023/07/10 12:59:43;;;;;;;6.50;4.28;;;;;;;;;;5033360;28;20680;-84
2023/07/10 13:02:17;;;;;;;8.70;4.32;;;;;;;;;;5031938;28;20203;-85
2023/07/10 13:04:49;;;;;;;5.45;4.22;;;;;;;;;;5033469;28;20233;-85
2023/07/10 13:07:17;;;;;;;7.70;4.65;;;;;;;;;;5034077;28;20219;-84
2023/07/10 13:09:51;;;;;;;5.38;3.90;;;;;;;;;;5033153;28;20223;-84
2023/07/10 13:12:21;;;;;;;4.40;4.00;;;;;;;;;;5033781;28;20218;-85
2023/07/10 13:14:49;;;;;;;4.30;3.83;;;;;;;;;;5033102;28;20325;-85
2023/07/10 13:17:17;;;;;;;4.88;3.72;;;;;;;;;;5032766;28;20231;-82
2023/07/10 13:19:44;;;;;;;4.57;4.03;;;;;;;;;;5032261;28;20608;-82
2023/07/10 13:22:13;;;;;;;7.65;4.03;;;;;;;;;;5032581;28;20203;-81
2023/07/10 13:24:40;;;;;;;6.65;3.72;;;;;;;;;;5010249;28;20239;-82
2023/07/10 13:27:11;;;;;;;4.65;4.00;;;;;;;;;;5001940;28;20223;-81
2023/07/10 13:29:38;;;;;;;5.68;3.47;;;;;;;;;;4996976;28;20227;-81
2023/07/10 13:32:05;;;;;;;3.92;3.53;;;;;;;;;;5005069;28;20699;-82
2023/07/10 13:34:32;;;;;;;4.70;3.78;;;;;;;;;;4994538;28;20235;-82
2023/07/10 13:37:00;;;;;;;4.30;3.75;;;;;;;;;;5000980;28;20227;-83
2023/07/10 13:39:28;;;;;;;4.60;3.78;;;;;;;;;;5013239;28;20603;-83
2023/07/10 13:41:55;;;;;;;5.10;3.80;;;;;;;;;;5014131;28;20677;-86
2023/07/10 13:44:22;;;;;;;3.88;3.50;;;;;;;;;;5013074;28;20239;-84
2023/07/10 13:46:49;;;;;;;4.47;3.20;;;;;;;;;;5014097;28;20229;-84
2023/07/10 13:49:16;;;;;;;4.18;3.55;;;;;;;;;;5013193;28;20234;-84
2023/07/10 13:51:43;;;;;;;4.57;3.28;;;;;;;;;;5014597;28;20587;-86
2023/07/10 13:54:10;;;;;;;4.07;3.40;;;;;;;;;;5013398;28;20239;-85
2023/07/10 13:56:41;;;;;;;4.45;4.05;;;;;;;;;;5013400;28;20227;-86
2023/07/10 13:59:13;;;;;;;5.95;4.00;;;;;;;;;;5012941;28;20238;-86
2023/07/10 14:01:40;;;;;;;5.43;4.10;;;;;;;;;;5008811;28;20231;-85
2023/07/10 14:04:08;;;;;;;4.28;3.78;;;;;;;;;;5013368;28;20234;-84
2023/07/10 14:06:37;;;;;;;5.75;4.28;;;;;;;;;;5013394;28;20235;-83
2023/07/10 14:09:06;;;;;;;4.13;3.78;;;;;;;;;;5012769;28;20611;-88
2023/07/10 14:11:33;;;;;;;4.68;4.28;;;;;;;;;;5015993;28;20696;-88
2023/07/10 14:14:02;;;;;;;4.68;4.28;;;;;;;;;;5015250;28;20239;-89
2023/07/10 14:16:29;;;;;;;4.97;4.03;;;;;;;;;;5016931;28;20785;-88
2023/07/10 14:18:57;;;;;;;7.75;4.82;;;;;;;;;;5016618;28;20243;-89
2023/07/10 14:21:24;;;;;;;9.35;5.20;;;;;;;;;;5017716;28;20218;-89
2023/07/10 14:23:51;;;;;;;4.93;4.43;;;;;;;;;;5016578;28;20239;-89
2023/07/10 14:26:22;;;;;;;5.97;4.25;;;;;;;;;;5018672;28;20590;-90
2023/07/10 14:28:50;;;;;;;4.95;4.25;;;;;;;;;;5014720;28;20250;-86
2023/07/10 14:31:18;;;;;;;4.63;4.22;;;;;;;;;;4994307;28;20208;-86
2023/07/10 14:33:47;;;;;;;7.95;4.88;;;;;;;;;;5003402;28;20235;-86
2023/07/10 14:36:15;;;;;;;5.00;4.50;;;;;;;;;;5014709;28;20219;-87
2023/07/10 14:38:42;;;;;;;4.93;4.47;;;;;;;;;;5013505;28;20243;-86
2023/07/10 14:41:11;;;;;;;4.35;3.92;;;;;;;;;;5014679;28;20216;-88
2023/07/10 14:43:38;;;;;;;3.78;3.40;;;;;;;;;;5013740;28;20246;-87
2023/07/10 14:46:07;;;;;;;4.35;3.50;;;;;;;;;;5014488;28;20235;-86